Time;durP1;ratioP1;P1;durP2;ratioP2;P2;SDS_P1;SDS_P2;PMS_P1;PMS_P2;Temp;Humidity;BMP_temperature;BMP_pressure;BME280_temperature;BME280_humidity;BME280_pressure;Samples;Min_cycle;Max_cycle;Signal;HPM_P1;HPM_P2
2020/12/28 00:00:15;;;;;;;36.20;18.65;;;4.80;99.90;;;;;;5157473;27;20023;-61
2020/12/28 00:02:41;;;;;;;33.95;18.30;;;4.80;99.90;;;;;;5138928;27;20026;-62
2020/12/28 00:05:08;;;;;;;40.80;21.80;;;4.80;99.90;;;;;;5154977;27;20087;-60
2020/12/28 00:07:35;;;;;;;37.25;21.13;;;4.80;99.90;;;;;;5146019;27;20492;-61
2020/12/28 00:10:03;;;;;;;41.78;21.55;;;4.70;99.90;;;;;;5158460;27;20019;-60
2020/12/28 00:12:29;;;;;;;32.15;18.50;;;4.70;99.90;;;;;;5150934;27;20027;-60
2020/12/28 00:14:55;;;;;;;42.50;22.02;;;4.60;99.90;;;;;;5155162;27;20272;-61
2020/12/28 00:17:20;;;;;;;43.30;21.13;;;4.60;99.90;;;;;;5157276;27;20026;-60
2020/12/28 00:19:46;;;;;;;47.00;22.45;;;4.60;99.90;;;;;;5154592;27;20081;-61
2020/12/28 00:22:11;;;;;;;43.78;22.67;;;4.60;99.90;;;;;;5146653;27;20105;-59
2020/12/28 00:24:37;;;;;;;38.38;21.35;;;4.50;99.90;;;;;;5150853;27;20035;-60
2020/12/28 00:27:02;;;;;;;58.75;24.30;;;4.40;99.90;;;;;;5148393;27;20392;-61
2020/12/28 00:29:28;;;;;;;43.45;22.60;;;4.40;99.90;;;;;;5151146;27;20039;-61
2020/12/28 00:31:53;;;;;;;41.83;22.60;;;4.50;99.90;;;;;;5143053;27;20026;-59
2020/12/28 00:34:19;;;;;;;41.63;21.13;;;4.40;99.90;;;;;;5128033;27;20051;-62
2020/12/28 00:36:44;;;;;;;45.47;22.50;;;4.40;99.90;;;;;;5151962;27;20038;-65
2020/12/28 00:39:10;;;;;;;56.90;26.05;;;4.30;99.90;;;;;;5155794;27;20022;-60
2020/12/28 00:41:35;;;;;;;50.33;23.90;;;4.30;99.90;;;;;;5153678;27;20050;-62
2020/12/28 00:44:01;;;;;;;46.90;24.50;;;4.30;99.90;;;;;;5153329;27;20081;-63
2020/12/28 00:46:26;;;;;;;54.15;25.73;;;4.20;99.90;;;;;;5151341;27;20487;-61
2020/12/28 00:48:52;;;;;;;52.78;26.55;;;4.10;99.90;;;;;;5165357;27;20019;-62
2020/12/28 00:51:18;;;;;;;53.47;25.27;;;4.10;99.90;;;;;;5165290;27;20026;-61
2020/12/28 00:53:44;;;;;;;48.45;23.92;;;4.10;99.90;;;;;;5153323;27;20023;-60
2020/12/28 00:56:13;;;;;;;48.58;24.90;;;4.00;99.90;;;;;;5156337;27;20286;-60
2020/12/28 00:58:38;;;;;;;61.50;25.40;;;4.00;99.90;;;;;;5172104;27;20022;-61
2020/12/28 01:01:04;;;;;;;57.80;25.73;;;4.00;99.90;;;;;;5153618;27;20385;-60
2020/12/28 01:03:30;;;;;;;53.75;25.13;;;4.00;99.90;;;;;;5126168;27;20054;-60
2020/12/28 01:05:55;;;;;;;55.33;24.52;;;4.00;99.90;;;;;;5162071;27;20058;-61
2020/12/28 01:08:21;;;;;;;56.05;25.98;;;4.00;99.90;;;;;;5167859;27;20018;-61
2020/12/28 01:10:47;;;;;;;48.83;21.90;;;4.00;99.90;;;;;;5155505;27;20027;-61
2020/12/28 01:13:14;;;;;;;46.42;23.88;;;4.00;99.90;;;;;;5161414;27;20023;-61
2020/12/28 01:15:40;;;;;;;65.65;26.67;;;4.00;99.90;;;;;;5144919;27;20129;-61
2020/12/28 01:18:05;;;;;;;53.25;24.33;;;4.00;99.90;;;;;;5167309;27;20156;-60
2020/12/28 01:20:31;;;;;;;48.75;25.08;;;3.90;99.90;;;;;;5161736;27;20029;-60
2020/12/28 01:22:56;;;;;;;52.85;25.58;;;3.90;99.90;;;;;;5158171;27;20429;-60
2020/12/28 01:25:22;;;;;;;43.75;23.60;;;3.90;99.90;;;;;;5165582;27;20022;-60
2020/12/28 01:27:47;;;;;;;61.70;26.48;;;3.80;99.90;;;;;;5156418;27;20054;-61
2020/12/28 01:30:13;;;;;;;65.03;27.75;;;3.80;99.90;;;;;;5154109;27;20104;-60
2020/12/28 01:32:38;;;;;;;45.20;22.05;;;3.80;99.90;;;;;;5146903;27;20365;-63
2020/12/28 01:35:04;;;;;;;59.47;26.77;;;3.80;99.90;;;;;;5147687;27;20023;-63
2020/12/28 01:37:29;;;;;;;54.45;23.88;;;3.80;99.90;;;;;;5188472;27;20395;-63
2020/12/28 01:39:55;;;;;;;61.63;26.77;;;3.80;99.90;;;;;;5170746;27;20105;-61
2020/12/28 01:42:20;;;;;;;70.05;26.67;;;3.80;99.90;;;;;;5154905;22;20044;-64
2020/12/28 01:44:46;;;;;;;52.53;25.08;;;3.70;99.90;;;;;;5079989;28;20023;-65
2020/12/28 01:47:12;;;;;;;56.97;26.73;;;3.70;99.90;;;;;;5090290;28;20044;-65
2020/12/28 01:49:38;;;;;;;65.72;27.35;;;3.70;99.90;;;;;;5088872;28;20567;-65
2020/12/28 01:52:04;;;;;;;58.05;26.63;;;3.70;99.90;;;;;;5090474;28;20020;-63
2020/12/28 01:54:31;;;;;;;55.53;26.17;;;3.70;99.90;;;;;;5080722;28;20028;-63
2020/12/28 01:56:59;;;;;;;53.55;24.67;;;3.80;99.90;;;;;;5090161;28;20016;-61
2020/12/28 01:59:25;;;;;;;57.53;25.17;;;3.80;99.90;;;;;;5094738;28;20504;-63
2020/12/28 02:01:53;;;;;;;57.83;26.08;;;3.80;99.90;;;;;;5075063;28;20032;-67
2020/12/28 02:04:19;;;;;;;56.38;26.48;;;3.90;99.90;;;;;;5095590;28;20404;-65
2020/12/28 02:06:46;;;;;;;44.47;24.90;;;3.90;99.90;;;;;;5096489;28;20103;-63
2020/12/28 02:09:12;;;;;;;62.65;28.63;;;3.90;99.90;;;;;;5086440;28;20027;-65
2020/12/28 02:11:37;;;;;;;57.47;27.75;;;3.90;99.90;;;;;;5078087;28;20028;-64
2020/12/28 02:14:03;;;;;;;64.57;27.00;;;3.90;99.90;;;;;;5088726;28;20492;-64
2020/12/28 02:16:29;;;;;;;59.67;28.92;;;3.90;99.90;;;;;;5074416;28;20047;-64
2020/12/28 02:18:54;;;;;;;53.38;25.70;;;3.90;99.90;;;;;;5073738;28;20344;-67
2020/12/28 02:21:20;;;;;;;66.00;27.08;;;4.00;99.90;;;;;;5090732;28;20028;-64
2020/12/28 02:23:45;;;;;;;63.40;27.75;;;4.00;99.90;;;;;;5074742;28;20500;-65
2020/12/28 02:26:11;;;;;;;59.42;27.75;;;3.90;99.90;;;;;;5086405;28;20024;-64
2020/12/28 02:28:38;;;;;;;73.55;30.35;;;3.90;99.90;;;;;;5080289;28;20020;-65
2020/12/28 02:31:03;;;;;;;73.45;30.25;;;3.90;99.90;;;;;;5076046;28;20143;-64
2020/12/28 02:33:29;;;;;;;65.97;28.67;;;3.90;99.90;;;;;;5086875;28;20111;-63
2020/12/28 02:35:55;;;;;;;72.82;30.02;;;3.90;99.90;;;;;;5089496;28;20110;-63
2020/12/28 02:38:20;;;;;;;71.90;30.05;;;4.00;99.90;;;;;;5080388;28;20017;-65
2020/12/28 02:40:46;;;;;;;70.07;29.40;;;3.90;99.90;;;;;;5075130;28;20032;-66
2020/12/28 02:43:12;;;;;;;59.63;26.50;;;3.90;99.90;;;;;;5093307;28;20044;-64
2020/12/28 02:45:37;;;;;;;61.08;26.10;;;3.90;99.90;;;;;;5103136;28;20019;-64
2020/12/28 02:48:03;;;;;;;54.58;26.77;;;3.90;99.90;;;;;;5093665;28;20083;-64
2020/12/28 02:50:29;;;;;;;60.42;26.77;;;3.90;99.90;;;;;;5097202;28;20107;-65
2020/12/28 02:52:54;;;;;;;63.08;27.95;;;3.90;99.90;;;;;;5096460;28;20061;-63
2020/12/28 02:55:20;;;;;;;68.47;28.40;;;3.90;99.90;;;;;;5095219;28;20090;-64
2020/12/28 02:57:46;;;;;;;64.22;28.48;;;3.90;99.90;;;;;;5096177;28;20048;-65
2020/12/28 03:00:11;;;;;;;62.13;26.20;;;4.00;99.90;;;;;;5089697;28;20055;-64
2020/12/28 03:02:37;;;;;;;71.30;28.02;;;4.00;99.90;;;;;;5115353;28;20024;-63
2020/12/28 03:05:03;;;;;;;78.20;29.52;;;4.00;99.90;;;;;;5114959;28;20020;-65
2020/12/28 03:07:29;;;;;;;82.95;30.88;;;4.10;99.90;;;;;;5091563;28;20034;-62
2020/12/28 03:09:55;;;;;;;82.45;29.10;;;4.10;99.90;;;;;;5076247;28;20070;-63
2020/12/28 03:12:20;;;;;;;97.15;30.23;;;4.10;99.90;;;;;;5078665;28;20020;-64
2020/12/28 03:14:46;;;;;;;81.22;30.85;;;4.10;99.90;;;;;;5095367;28;20032;-65
2020/12/28 03:17:11;;;;;;;105.57;33.78;;;4.10;99.90;;;;;;5090293;28;20027;-64
2020/12/28 03:19:37;;;;;;;88.07;32.17;;;4.10;99.90;;;;;;5091892;28;20107;-63
2020/12/28 03:22:02;;;;;;;129.68;36.90;;;4.20;99.90;;;;;;5094995;28;20400;-64
2020/12/28 03:24:28;;;;;;;100.53;35.53;;;4.10;99.90;;;;;;5102480;28;20079;-63
2020/12/28 03:26:53;;;;;;;117.28;34.67;;;4.00;99.90;;;;;;5102122;28;20020;-63
2020/12/28 03:29:19;;;;;;;123.15;35.95;;;4.10;99.90;;;;;;5086347;28;20027;-63
2020/12/28 03:31:44;;;;;;;108.45;36.13;;;4.00;99.90;;;;;;5090743;28;20024;-62
2020/12/28 03:34:10;;;;;;;118.78;36.13;;;4.00;99.90;;;;;;5090974;28;20052;-64
2020/12/28 03:36:36;;;;;;;99.13;33.13;;;4.00;99.90;;;;;;5091909;28;20028;-65
2020/12/28 03:39:04;;;;;;;96.75;33.83;;;4.00;99.90;;;;;;5090386;28;20028;-65
2020/12/28 03:41:32;;;;;;;86.93;32.45;;;3.90;99.90;;;;;;5088504;28;20080;-65
2020/12/28 03:43:57;;;;;;;105.45;34.83;;;4.00;99.90;;;;;;5084325;28;20570;-65
2020/12/28 03:46:23;;;;;;;101.03;32.30;;;3.90;99.90;;;;;;5076183;28;20091;-63
2020/12/28 03:48:48;;;;;;;87.75;32.67;;;4.00;99.90;;;;;;5094019;28;20114;-63
2020/12/28 03:51:14;;;;;;;78.20;31.67;;;3.90;99.90;;;;;;5075178;28;20070;-63
2020/12/28 03:53:40;;;;;;;101.05;34.53;;;4.00;99.90;;;;;;5093014;28;20046;-63
2020/12/28 03:56:05;;;;;;;72.53;28.92;;;4.00;99.90;;;;;;5093350;28;20031;-63
2020/12/28 03:58:31;;;;;;;81.18;30.90;;;3.90;99.90;;;;;;5091832;28;20035;-64
2020/12/28 04:00:56;;;;;;;64.53;26.52;;;3.90;99.90;;;;;;5092669;28;20043;-64
2020/12/28 04:03:22;;;;;;;77.35;28.77;;;3.90;99.90;;;;;;5106632;28;20054;-63
2020/12/28 04:05:48;;;;;;;68.35;27.35;;;3.90;99.90;;;;;;5102996;28;20051;-63
2020/12/28 04:08:13;;;;;;;71.90;24.80;;;3.90;99.90;;;;;;5087790;28;20034;-63
2020/12/28 04:10:39;;;;;;;76.65;28.05;;;3.90;99.90;;;;;;5098400;28;20059;-63
2020/12/28 04:13:04;;;;;;;56.65;25.05;;;3.90;99.90;;;;;;5091509;28;20032;-64
2020/12/28 04:15:30;;;;;;;59.60;23.35;;;3.90;99.90;;;;;;5082171;28;20439;-63
2020/12/28 04:17:55;;;;;;;50.92;22.88;;;3.90;99.90;;;;;;5087162;28;20024;-65
2020/12/28 04:20:21;;;;;;;43.55;19.83;;;3.90;99.90;;;;;;5100822;28;20032;-65
2020/12/28 04:22:46;;;;;;;49.47;21.08;;;3.90;99.90;;;;;;5100343;28;20063;-65
2020/12/28 04:25:15;;;;;;;45.58;21.77;;;3.90;99.90;;;;;;5094683;28;20034;-64
2020/12/28 04:27:41;;;;;;;42.03;20.17;;;3.90;99.90;;;;;;5097145;28;20030;-64
2020/12/28 04:30:07;;;;;;;37.05;18.40;;;3.90;99.90;;;;;;5091824;28;20022;-65
2020/12/28 04:32:33;;;;;;;37.70;20.33;;;3.90;99.90;;;;;;5091240;28;20028;-63
2020/12/28 04:34:58;;;;;;;39.08;18.85;;;3.90;99.90;;;;;;5083685;28;20028;-63
2020/12/28 04:37:24;;;;;;;37.38;18.45;;;3.80;99.90;;;;;;5090407;28;20036;-63
2020/12/28 04:39:49;;;;;;;46.35;18.67;;;3.70;99.90;;;;;;5087490;28;20051;-65
2020/12/28 04:42:26;;;;;;;36.53;17.10;;;3.70;99.90;;;;;;5089234;28;20047;-63
2020/12/28 04:44:51;;;;;;;40.03;18.73;;;3.70;99.90;;;;;;5070183;28;20027;-67
2020/12/28 04:47:17;;;;;;;31.27;15.90;;;3.60;99.90;;;;;;5086247;28;20020;-64
2020/12/28 04:49:45;;;;;;;32.53;17.08;;;3.60;99.90;;;;;;5089327;28;20019;-64
2020/12/28 04:52:12;;;;;;;34.50;17.45;;;3.50;99.90;;;;;;5086857;28;20047;-65
2020/12/28 04:54:39;;;;;;;32.88;17.17;;;3.40;99.90;;;;;;5080123;28;20179;-63
2020/12/28 04:57:04;;;;;;;41.17;17.90;;;3.40;99.90;;;;;;5086343;28;20028;-64
2020/12/28 04:59:30;;;;;;;32.00;16.77;;;3.40;99.90;;;;;;5087705;28;20031;-65
2020/12/28 05:01:55;;;;;;;26.88;14.88;;;3.30;99.90;;;;;;5083525;28;20543;-64
2020/12/28 05:04:24;;;;;;;29.65;14.77;;;3.40;99.90;;;;;;5073989;28;20020;-62
2020/12/28 05:06:57;;;;;;;32.95;16.15;;;3.40;99.90;;;;;;5089295;28;20036;-63
2020/12/28 05:09:23;;;;;;;34.33;16.52;;;3.40;99.90;;;;;;5090577;28;20020;-64
2020/12/28 05:11:54;;;;;;;41.38;18.65;;;3.40;99.90;;;;;;5085553;28;20058;-63
2020/12/28 05:14:20;;;;;;;42.47;19.85;;;3.40;99.90;;;;;;5087761;28;20102;-63
2020/12/28 05:16:46;;;;;;;41.25;20.05;;;3.40;99.90;;;;;;5085497;28;20051;-64
2020/12/28 05:19:12;;;;;;;49.33;22.40;;;3.50;99.90;;;;;;5091312;28;20033;-65
2020/12/28 05:21:37;;;;;;;47.42;22.67;;;3.40;99.90;;;;;;5090564;28;20032;-63
2020/12/28 05:24:16;;;;;;;60.30;24.20;;;3.40;99.90;;;;;;5085794;28;20059;-65
2020/12/28 05:26:43;;;;;;;55.60;24.13;;;3.30;99.90;;;;;;5084122;28;20012;-63
2020/12/28 05:29:20;;;;;;;53.92;23.98;;;3.30;99.90;;;;;;5090441;28;20024;-63
2020/12/28 05:31:48;;;;;;;61.28;24.52;;;3.30;99.90;;;;;;5102367;28;20020;-61
2020/12/28 05:34:22;;;;;;;52.30;23.05;;;3.30;99.90;;;;;;5097663;28;20027;-64
2020/12/28 05:36:54;;;;;;;57.35;24.92;;;3.20;99.90;;;;;;5089384;28;20028;-62
2020/12/28 05:39:23;;;;;;;56.63;24.37;;;3.20;99.90;;;;;;5082178;28;20024;-64
2020/12/28 05:41:57;;;;;;;57.35;24.85;;;3.20;99.90;;;;;;5080034;28;20482;-64
2020/12/28 05:44:26;;;;;;;56.08;24.75;;;3.20;99.90;;;;;;5081164;28;20358;-62
2020/12/28 05:47:12;;;;;;;63.78;24.70;;;3.30;99.90;;;;;;5089590;28;20517;-64
2020/12/28 05:49:46;;;;;;;63.53;26.63;;;3.40;99.90;;;;;;5090025;28;20063;-64
2020/12/28 05:52:16;;;;;;;61.80;24.55;;;3.40;99.90;;;;;;5088724;28;20031;-63
2020/12/28 05:54:43;;;;;;;51.97;24.45;;;3.40;99.90;;;;;;5087403;28;20042;-64
2020/12/28 05:57:09;;;;;;;51.35;22.73;;;3.40;99.90;;;;;;5088347;28;20077;-64
2020/12/28 05:59:37;;;;;;;55.13;24.80;;;3.40;99.90;;;;;;5081576;28;20032;-62
2020/12/28 06:02:06;;;;;;;49.97;22.52;;;3.40;99.90;;;;;;5085164;28;20025;-64
2020/12/28 06:04:31;;;;;;;57.65;23.65;;;3.40;99.90;;;;;;5089317;28;20027;-64
2020/12/28 06:06:59;;;;;;;56.83;22.17;;;3.50;99.90;;;;;;5084141;28;20032;-65
2020/12/28 06:09:25;;;;;;;46.65;21.05;;;3.50;99.90;;;;;;5081124;28;20327;-64
2020/12/28 06:12:05;;;;;;;42.63;20.35;;;3.50;99.90;;;;;;5080659;28;20032;-65
2020/12/28 06:14:35;;;;;;;48.63;20.85;;;3.60;99.90;;;;;;5088191;28;20601;-65
2020/12/28 06:17:05;;;;;;;46.67;20.73;;;3.60;99.90;;;;;;5088886;28;20024;-66
2020/12/28 06:19:31;;;;;;;51.38;20.42;;;3.70;99.90;;;;;;5088371;28;20275;-66
2020/12/28 06:21:57;;;;;;;47.10;19.83;;;3.70;99.90;;;;;;5086227;28;20020;-64
2020/12/28 06:24:26;;;;;;;41.58;19.23;;;3.70;99.90;;;;;;5086426;28;20042;-63
2020/12/28 06:27:03;;;;;;;39.80;18.65;;;3.80;99.90;;;;;;5083757;28;20365;-64
2020/12/28 06:29:29;;;;;;;36.55;16.65;;;3.80;99.90;;;;;;5081534;28;20111;-62
2020/12/28 06:31:54;;;;;;;44.20;18.25;;;3.70;99.90;;;;;;5093475;28;20031;-64
2020/12/28 06:34:20;;;;;;;33.17;15.75;;;3.80;99.90;;;;;;5092985;28;20031;-64
2020/12/28 06:36:46;;;;;;;32.45;15.93;;;3.80;99.90;;;;;;5083416;28;20455;-64
2020/12/28 06:39:12;;;;;;;38.03;15.38;;;3.80;99.90;;;;;;5082701;28;20035;-64
2020/12/28 06:41:37;;;;;;;33.42;14.95;;;3.90;99.90;;;;;;5078807;28;20119;-65
2020/12/28 06:44:03;;;;;;;32.97;14.15;;;3.90;99.90;;;;;;5090922;28;20043;-64
2020/12/28 06:46:30;;;;;;;34.28;14.27;;;3.90;99.90;;;;;;5092809;28;20024;-64
2020/12/28 06:48:57;;;;;;;25.15;12.55;;;3.90;99.90;;;;;;5094354;28;20502;-65
2020/12/28 06:51:24;;;;;;;24.40;12.80;;;3.80;99.90;;;;;;5092366;28;20016;-63
2020/12/28 06:53:53;;;;;;;21.77;11.65;;;3.80;99.90;;;;;;5088787;28;20032;-64
2020/12/28 06:56:19;;;;;;;24.85;11.77;;;3.80;99.90;;;;;;5086754;28;20032;-64
2020/12/28 06:58:55;;;;;;;25.55;12.13;;;3.80;99.90;;;;;;5089573;28;20016;-65
2020/12/28 07:01:23;;;;;;;19.98;10.77;;;3.90;99.90;;;;;;5094230;28;20390;-64
2020/12/28 07:03:50;;;;;;;21.98;11.93;;;3.90;99.90;;;;;;5094574;28;20024;-65
2020/12/28 07:06:17;;;;;;;23.33;10.55;;;3.90;99.90;;;;;;5094751;28;20055;-63
2020/12/28 07:08:43;;;;;;;21.83;10.90;;;3.90;99.90;;;;;;5095347;28;20022;-63
2020/12/28 07:11:09;;;;;;;19.42;9.93;;;3.90;99.90;;;;;;5095107;28;20099;-65
2020/12/28 07:13:34;;;;;;;31.17;11.27;;;3.90;99.90;;;;;;5088407;28;20401;-63
2020/12/28 07:16:01;;;;;;;16.42;10.43;;;3.90;99.90;;;;;;5094822;28;20024;-64
2020/12/28 07:18:27;;;;;;;19.15;9.93;;;3.80;99.90;;;;;;5091873;28;20017;-64
2020/12/28 07:20:59;;;;;;;22.17;10.13;;;3.70;99.90;;;;;;5094591;28;20018;-64
2020/12/28 07:23:25;;;;;;;22.98;11.23;;;3.70;99.90;;;;;;5085115;28;20028;-65
2020/12/28 07:26:11;;;;;;;19.38;11.45;;;3.70;99.90;;;;;;5094057;28;20060;-65
2020/12/28 07:28:38;;;;;;;30.98;11.27;;;3.60;99.90;;;;;;5094829;28;20046;-67
2020/12/28 07:31:06;;;;;;;24.15;10.55;;;3.60;99.90;;;;;;5094309;28;20481;-65
2020/12/28 07:33:32;;;;;;;22.33;10.15;;;3.60;99.90;;;;;;5095124;28;20380;-65
2020/12/28 07:36:10;;;;;;;22.80;10.27;;;3.60;99.90;;;;;;5080827;28;20016;-65
2020/12/28 07:38:36;;;;;;;18.75;9.82;;;3.60;99.90;;;;;;5094903;28;20027;-64
2020/12/28 07:41:02;;;;;;;20.35;9.90;;;3.60;99.90;;;;;;5092702;28;20021;-64
2020/12/28 07:43:28;;;;;;;16.77;9.82;;;3.60;99.90;;;;;;5060074;22;20054;-63
2020/12/28 07:46:07;;;;;;;20.60;8.65;;;3.50;99.90;;;;;;5016352;28;20557;-61
2020/12/28 07:48:36;;;;;;;23.05;8.88;;;3.60;99.90;;;;;;5004137;28;20021;-61
2020/12/28 07:51:07;;;;;;;15.20;7.63;;;3.50;99.90;;;;;;5034483;28;20029;-61
2020/12/28 07:53:39;;;;;;;13.68;7.63;;;3.50;99.90;;;;;;5034375;28;20395;-60
2020/12/28 07:56:08;;;;;;;20.17;7.50;;;3.60;99.90;;;;;;5034352;28;20467;-60
2020/12/28 07:58:55;;;;;;;20.35;7.43;;;3.60;99.90;;;;;;5011350;28;20026;-60
2020/12/28 08:01:34;;;;;;;17.38;7.18;;;3.60;99.90;;;;;;5033620;28;20025;-60
2020/12/28 08:04:02;;;;;;;13.50;7.57;;;3.70;99.90;;;;;;5003399;28;20025;-60
2020/12/28 08:06:28;;;;;;;18.88;7.32;;;3.60;99.90;;;;;;5033813;28;20382;-60
2020/12/28 08:09:03;;;;;;;15.88;6.70;;;3.70;99.90;;;;;;5030776;28;20022;-60
2020/12/28 08:11:30;;;;;;;21.05;6.78;;;3.60;99.90;;;;;;5023694;28;20022;-59
2020/12/28 08:13:56;;;;;;;21.73;6.78;;;3.60;99.90;;;;;;5032380;28;20028;-59
2020/12/28 08:16:22;;;;;;;12.07;5.57;;;3.60;99.90;;;;;;5026942;28;20026;-59
2020/12/28 08:18:49;;;;;;;18.50;6.40;;;3.60;99.90;;;;;;5030795;28;20092;-59
2020/12/28 08:21:15;;;;;;;17.90;6.82;;;3.60;99.90;;;;;;5036023;28;20025;-60
2020/12/28 08:23:48;;;;;;;18.00;6.15;;;3.70;99.90;;;;;;5039917;28;20037;-60
2020/12/28 08:26:23;;;;;;;19.67;5.93;;;3.70;99.90;;;;;;5034877;28;20049;-60
2020/12/28 08:29:09;;;;;;;16.25;6.68;;;3.70;99.90;;;;;;5033602;28;20056;-60
2020/12/28 08:31:36;;;;;;;12.77;5.32;;;3.70;99.90;;;;;;5031943;28;20037;-60
2020/12/28 08:34:15;;;;;;;20.33;5.43;;;3.70;99.90;;;;;;5015076;28;20033;-60
2020/12/28 08:36:52;;;;;;;13.82;4.70;;;3.70;99.90;;;;;;5028411;28;20026;-61
2020/12/28 08:39:22;;;;;;;14.52;4.97;;;3.70;99.90;;;;;;5032829;28;20041;-60
2020/12/28 08:42:00;;;;;;;19.27;4.72;;;3.80;99.90;;;;;;5022872;28;20029;-59
2020/12/28 08:44:37;;;;;;;10.55;5.28;;;3.80;99.90;;;;;;5024586;28;20045;-61
2020/12/28 08:47:04;;;;;;;10.15;5.07;;;3.90;99.90;;;;;;5021697;28;20022;-60
2020/12/28 08:49:32;;;;;;;14.07;4.80;;;3.90;99.90;;;;;;5034870;28;20035;-60
2020/12/28 08:52:27;;;;;;;16.70;4.85;;;3.80;99.90;;;;;;5033130;28;20364;-61
2020/12/28 08:54:57;;;;;;;7.75;4.55;;;3.80;99.90;;;;;;5013990;28;20041;-60
2020/12/28 08:57:30;;;;;;;18.50;4.88;;;3.80;99.90;;;;;;5032920;28;20025;-61
2020/12/28 08:59:59;;;;;;;11.57;5.13;;;3.80;99.90;;;;;;5032634;28;20040;-61
2020/12/28 09:02:26;;;;;;;12.13;5.55;;;3.80;99.90;;;;;;5032274;28;20454;-62
2020/12/28 09:04:52;;;;;;;16.65;5.80;;;3.80;99.90;;;;;;5015518;28;20021;-60
2020/12/28 09:07:18;;;;;;;12.30;6.18;;;3.90;99.90;;;;;;5033178;28;20446;-60
2020/12/28 09:09:46;;;;;;;22.48;6.63;;;3.80;99.90;;;;;;5015820;28;20025;-61
2020/12/28 09:12:13;;;;;;;15.27;7.32;;;3.80;99.90;;;;;;5032590;28;20079;-60
2020/12/28 09:14:39;;;;;;;19.40;7.07;;;3.80;99.90;;;;;;5032984;28;20022;-61
2020/12/28 09:17:05;;;;;;;17.10;5.90;;;3.80;99.90;;;;;;5032208;28;20030;-60
2020/12/28 09:19:31;;;;;;;11.70;6.68;;;3.80;99.90;;;;;;5032819;28;20029;-62
2020/12/28 09:21:57;;;;;;;14.55;6.00;;;3.80;99.90;;;;;;5035235;28;20034;-59
2020/12/28 09:24:24;;;;;;;13.55;6.18;;;3.80;99.90;;;;;;5045507;28;20045;-60
2020/12/28 09:26:50;;;;;;;14.30;5.97;;;3.90;99.90;;;;;;5040653;28;20033;-61
2020/12/28 09:29:16;;;;;;;14.75;5.97;;;4.00;99.90;;;;;;5028569;28;20032;-60
2020/12/28 09:31:41;;;;;;;15.90;5.07;;;4.10;99.90;;;;;;5032258;28;20022;-62
2020/12/28 09:34:07;;;;;;;15.48;4.70;;;4.20;99.90;;;;;;5032458;28;20025;-61
2020/12/28 09:36:33;;;;;;;13.32;5.00;;;4.20;99.90;;;;;;5031991;28;20380;-59
2020/12/28 09:38:59;;;;;;;12.50;5.55;;;4.20;99.90;;;;;;5031949;28;20025;-60
2020/12/28 09:41:25;;;;;;;14.52;4.60;;;4.30;99.90;;;;;;5032167;28;20532;-59
2020/12/28 09:43:50;;;;;;;14.30;4.53;;;4.30;99.90;;;;;;5032162;28;20061;-61
2020/12/28 09:46:20;;;;;;;11.32;5.15;;;4.30;99.90;;;;;;5030410;28;20426;-59
2020/12/28 09:48:46;;;;;;;16.13;5.13;;;4.40;99.90;;;;;;5032242;28;20099;-60
2020/12/28 09:51:12;;;;;;;12.95;5.07;;;4.50;99.90;;;;;;5031320;28;20028;-60
2020/12/28 09:53:39;;;;;;;15.43;4.07;;;4.50;99.90;;;;;;5017342;28;20021;-59
2020/12/28 09:56:05;;;;;;;11.18;4.40;;;4.50;99.90;;;;;;5031638;28;20120;-61
2020/12/28 09:58:32;;;;;;;11.38;4.45;;;4.50;99.90;;;;;;5030893;28;20096;-60
2020/12/28 10:01:00;;;;;;;6.40;3.92;;;4.50;99.90;;;;;;5024018;28;20022;-61
2020/12/28 10:03:26;;;;;;;9.63;3.80;;;4.60;99.90;;;;;;5026545;28;20036;-59
2020/12/28 10:05:53;;;;;;;13.50;4.00;;;4.70;99.90;;;;;;5031155;28;20356;-61
2020/12/28 10:08:18;;;;;;;14.20;4.03;;;4.80;99.90;;;;;;5014045;28;20392;-60
2020/12/28 10:10:44;;;;;;;9.95;3.80;;;4.80;99.90;;;;;;5027786;28;20083;-63
2020/12/28 10:13:11;;;;;;;8.13;3.33;;;4.80;99.90;;;;;;5023201;28;20021;-60
2020/12/28 10:15:37;;;;;;;11.88;3.67;;;4.90;99.90;;;;;;5030997;28;20032;-59
2020/12/28 10:18:21;;;;;;;12.00;3.47;;;4.80;99.90;;;;;;5030949;28;20018;-60
2020/12/28 10:20:46;;;;;;;19.65;3.35;;;4.80;99.90;;;;;;5019959;28;20022;-60
2020/12/28 10:23:12;;;;;;;16.45;4.20;;;4.80;99.90;;;;;;5030493;28;20029;-60
2020/12/28 10:25:37;;;;;;;11.93;3.92;;;4.80;99.90;;;;;;5031027;28;20048;-61
2020/12/28 10:28:03;;;;;;;10.13;3.40;;;4.90;99.90;;;;;;5030241;28;20025;-62
2020/12/28 10:30:29;;;;;;;12.05;2.85;;;4.90;99.90;;;;;;5031134;28;20495;-60
2020/12/28 10:32:55;;;;;;;11.90;3.00;;;4.90;99.90;;;;;;5030232;28;20022;-60
2020/12/28 10:35:20;;;;;;;8.07;2.85;;;4.80;99.90;;;;;;5029205;28;20022;-59
2020/12/28 10:37:46;;;;;;;12.05;3.83;;;4.90;99.90;;;;;;5030429;28;20036;-61
2020/12/28 10:40:12;;;;;;;12.73;3.00;;;4.90;99.90;;;;;;5031360;28;20048;-60
2020/12/28 10:42:37;;;;;;;8.48;3.05;;;4.90;99.90;;;;;;5030763;28;20581;-60
2020/12/28 10:45:04;;;;;;;8.57;3.20;;;4.90;99.90;;;;;;5030257;28;20406;-59
2020/12/28 10:47:29;;;;;;;8.32;2.90;;;5.00;99.90;;;;;;5031579;28;20026;-59
2020/12/28 10:49:56;;;;;;;6.30;3.28;;;5.10;99.90;;;;;;5030791;28;20047;-59
2020/12/28 10:52:21;;;;;;;9.63;2.60;;;5.20;99.90;;;;;;5030887;28;20022;-60
2020/12/28 10:54:47;;;;;;;9.50;2.95;;;5.20;99.90;;;;;;5029172;28;20128;-61
2020/12/28 10:57:12;;;;;;;8.32;2.78;;;5.20;99.90;;;;;;5011157;28;20036;-61
2020/12/28 10:59:38;;;;;;;8.98;3.08;;;5.30;99.90;;;;;;5023905;28;20036;-62
2020/12/28 11:02:04;;;;;;;4.68;2.72;;;5.30;99.90;;;;;;5030224;28;20387;-61
2020/12/28 11:04:29;;;;;;;7.40;3.47;;;5.30;99.90;;;;;;5031072;28;20029;-60
2020/12/28 11:06:55;;;;;;;11.10;2.58;;;5.30;99.90;;;;;;5030813;28;20492;-60
2020/12/28 11:09:20;;;;;;;10.35;2.35;;;5.20;99.90;;;;;;5030935;28;20483;-61
2020/12/28 11:11:50;;;;;;;9.27;3.13;;;5.20;99.90;;;;;;5030815;28;20254;-63
2020/12/28 11:14:16;;;;;;;9.35;2.85;;;5.10;99.90;;;;;;5018029;28;20029;-61
2020/12/28 11:16:41;;;;;;;7.30;2.97;;;5.00;99.90;;;;;;5031304;28;20025;-60
2020/12/28 11:19:07;;;;;;;8.20;2.55;;;5.00;99.90;;;;;;5030235;28;20056;-59
2020/12/28 11:21:33;;;;;;;7.93;2.22;;;5.00;99.90;;;;;;5030707;28;20099;-60
2020/12/28 11:24:02;;;;;;;8.98;3.08;;;5.00;99.90;;;;;;5030145;28;20030;-61
2020/12/28 11:26:29;;;;;;;16.58;3.50;;;4.90;99.90;;;;;;5030965;28;20052;-61
2020/12/28 11:28:55;;;;;;;7.65;2.38;;;5.00;99.90;;;;;;5021585;28;20018;-60
2020/12/28 11:31:21;;;;;;;8.25;2.40;;;4.90;99.90;;;;;;5029974;28;20064;-60
2020/12/28 11:33:47;;;;;;;8.90;2.10;;;4.90;99.90;;;;;;5023989;28;20034;-60
2020/12/28 11:36:13;;;;;;;6.78;2.50;;;4.80;99.90;;;;;;5031376;28;20087;-60
2020/12/28 11:38:40;;;;;;;11.15;2.50;;;4.80;99.90;;;;;;5030966;28;20435;-60
2020/12/28 11:41:06;;;;;;;6.57;2.22;;;4.90;99.90;;;;;;5030335;28;20022;-61
2020/12/28 11:43:32;;;;;;;8.52;2.55;;;5.00;99.90;;;;;;5043513;28;20087;-62
2020/12/28 11:45:58;;;;;;;8.93;2.97;;;5.10;99.90;;;;;;5054831;28;20391;-62
2020/12/28 11:48:24;;;;;;;5.10;2.40;;;5.00;99.90;;;;;;5054391;28;20028;-60
2020/12/28 11:50:49;;;;;;;9.00;2.45;;;5.00;99.90;;;;;;5055260;28;20029;-61
2020/12/28 11:53:15;;;;;;;7.85;2.58;;;5.00;99.90;;;;;;5057438;28;20056;-61
2020/12/28 11:58:26;;;;;;;4.82;2.08;;;5.00;99.90;;;;;;5059001;28;20043;-62
2020/12/28 12:00:52;;;;;;;4.32;2.58;;;5.00;99.90;;;;;;5052918;28;20108;-60
2020/12/28 12:03:17;;;;;;;5.85;2.55;;;5.00;99.90;;;;;;5054648;28;20072;-61
2020/12/28 12:05:43;;;;;;;5.47;2.60;;;5.10;99.90;;;;;;5054926;28;20232;-61
2020/12/28 12:08:08;;;;;;;10.65;2.47;;;5.00;99.90;;;;;;5052505;28;20112;-61
2020/12/28 12:10:34;;;;;;;6.03;2.10;;;5.00;99.90;;;;;;5053107;28;20067;-61
2020/12/28 12:12:59;;;;;;;13.88;2.55;;;5.00;99.90;;;;;;5052217;28;20032;-61
2020/12/28 12:15:25;;;;;;;9.63;3.20;;;5.10;99.90;;;;;;5051519;28;20496;-63
2020/12/28 12:17:51;;;;;;;14.30;2.60;;;5.10;99.90;;;;;;5052497;28;20025;-60
2020/12/28 12:20:16;;;;;;;6.95;1.92;;;5.00;99.90;;;;;;5052300;28;20033;-61
2020/12/28 12:22:42;;;;;;;10.15;2.70;;;5.10;99.90;;;;;;5051648;28;20147;-62
2020/12/28 12:25:07;;;;;;;4.97;2.35;;;5.10;99.90;;;;;;5046884;28;20014;-61
2020/12/28 12:27:33;;;;;;;7.90;2.70;;;5.20;99.90;;;;;;5050878;28;20013;-61
2020/12/28 12:29:58;;;;;;;8.57;2.63;;;5.30;99.90;;;;;;5046335;28;20483;-61
2020/12/28 12:32:24;;;;;;;7.35;2.70;;;5.40;99.90;;;;;;5053198;28;20028;-61
2020/12/28 12:34:49;;;;;;;12.25;2.75;;;5.40;99.90;;;;;;5053138;28;20036;-61
2020/12/28 12:37:15;;;;;;;7.70;2.13;;;5.30;99.90;;;;;;5055120;28;20139;-60
2020/12/28 12:39:41;;;;;;;7.22;2.53;;;5.40;99.90;;;;;;5053342;28;20072;-60
2020/12/28 12:42:06;;;;;;;5.38;2.00;;;5.30;99.90;;;;;;5068329;28;20028;-60
2020/12/28 12:44:32;;;;;;;5.90;2.63;;;5.30;99.90;;;;;;5051943;28;20025;-61